Terminal Aerodrome Forecast
Issued by NWS Missoula, MT

Home | Current Version | Previous Version | Text Only | Print | Product List | Glossary On
Versions: 1 2 3 4 5 6 7 8 9 10 11 12 13 14 15 16 17 18 19 20 21 22 23 24 25 26 27 28 29 30 31 32
000
FTUS45 KMSO 172210 AAC
TAFMSO
TAF AMD
KMSO 172210Z 1722/1818 16015KT 1SM -SN SCT008 OVC015
     FM180300 34010G20KT 1/2SM SN FZFG VV015 WS020/26045KT
     FM180600 03012G22KT 2SM -SN BR SCT015 OVC030 WS020/27040KT
     FM181300 11015G28KT 5SM -SN BR OVC030=

USA.gov is the U.S. government's official web portal to all federal, state and local government web resources and services.